sensor_id;sensor_type;location;lat;lon;timestamp;P1;durP1;ratioP1;P2;durP2;ratioP2
71087;SDS011;58747;50.674;4.616;2022-08-03T00:01:51;3.73;;;1.90;;
71087;SDS011;58747;50.674;4.616;2022-08-03T00:04:17;2.80;;;2.40;;
71087;SDS011;58747;50.674;4.616;2022-08-03T00:06:42;2.37;;;2.17;;
71087;SDS011;58747;50.674;4.616;2022-08-03T00:09:08;2.13;;;1.92;;
71087;SDS011;58747;50.674;4.616;2022-08-03T00:11:33;3.33;;;2.33;;
71087;SDS011;58747;50.674;4.616;2022-08-03T00:13:59;3.35;;;2.38;;
71087;SDS011;58747;50.674;4.616;2022-08-03T00:16:25;2.57;;;2.17;;
71087;SDS011;58747;50.674;4.616;2022-08-03T00:18:50;3.05;;;1.80;;
71087;SDS011;58747;50.674;4.616;2022-08-03T00:21:16;3.57;;;2.20;;
71087;SDS011;58747;50.674;4.616;2022-08-03T00:23:41;3.40;;;2.47;;
71087;SDS011;58747;50.674;4.616;2022-08-03T00:26:07;2.75;;;2.03;;
71087;SDS011;58747;50.674;4.616;2022-08-03T00:28:32;1.93;;;1.80;;
71087;SDS011;58747;50.674;4.616;2022-08-03T00:30:57;2.90;;;2.27;;
71087;SDS011;58747;50.674;4.616;2022-08-03T00:33:23;2.73;;;1.63;;
71087;SDS011;58747;50.674;4.616;2022-08-03T00:35:48;5.20;;;2.07;;
71087;SDS011;58747;50.674;4.616;2022-08-03T00:38:13;2.60;;;2.30;;
71087;SDS011;58747;50.674;4.616;2022-08-03T00:40:39;4.23;;;2.60;;
71087;SDS011;58747;50.674;4.616;2022-08-03T00:43:05;3.28;;;2.20;;
71087;SDS011;58747;50.674;4.616;2022-08-03T00:45:33;3.13;;;1.93;;
71087;SDS011;58747;50.674;4.616;2022-08-03T00:48:03;2.38;;;2.17;;
71087;SDS011;58747;50.674;4.616;2022-08-03T00:50:30;4.25;;;2.25;;
71087;SDS011;58747;50.674;4.616;2022-08-03T00:52:59;2.22;;;2.00;;
71087;SDS011;58747;50.674;4.616;2022-08-03T00:55:25;3.35;;;1.90;;
71087;SDS011;58747;50.674;4.616;2022-08-03T00:57:51;2.67;;;2.47;;
71087;SDS011;58747;50.674;4.616;2022-08-03T01:00:19;2.63;;;2.05;;
71087;SDS011;58747;50.674;4.616;2022-08-03T01:02:46;2.97;;;1.80;;
71087;SDS011;58747;50.674;4.616;2022-08-03T01:05:11;3.67;;;2.00;;
71087;SDS011;58747;50.674;4.616;2022-08-03T01:18:31;2.50;;;2.30;;
71087;SDS011;58747;50.674;4.616;2022-08-03T01:21:09;3.63;;;1.88;;
71087;SDS011;58747;50.674;4.616;2022-08-03T01:34:59;3.33;;;2.72;;
71087;SDS011;58747;50.674;4.616;2022-08-03T01:37:35;5.78;;;2.33;;
71087;SDS011;58747;50.674;4.616;2022-08-03T01:40:03;3.95;;;2.40;;
71087;SDS011;58747;50.674;4.616;2022-08-03T01:42:31;2.80;;;2.53;;
71087;SDS011;58747;50.674;4.616;2022-08-03T01:44:58;2.88;;;2.55;;
71087;SDS011;58747;50.674;4.616;2022-08-03T01:47:26;2.88;;;2.00;;
71087;SDS011;58747;50.674;4.616;2022-08-03T01:49:52;3.20;;;2.15;;
71087;SDS011;58747;50.674;4.616;2022-08-03T01:52:18;2.55;;;1.98;;
71087;SDS011;58747;50.674;4.616;2022-08-03T01:54:47;8.37;;;2.73;;
71087;SDS011;58747;50.674;4.616;2022-08-03T01:57:14;4.25;;;2.22;;
71087;SDS011;58747;50.674;4.616;2022-08-03T01:59:41;2.55;;;2.05;;
71087;SDS011;58747;50.674;4.616;2022-08-03T02:02:07;2.55;;;2.35;;
71087;SDS011;58747;50.674;4.616;2022-08-03T02:04:37;2.33;;;2.13;;
71087;SDS011;58747;50.674;4.616;2022-08-03T02:07:05;2.00;;;1.80;;
71087;SDS011;58747;50.674;4.616;2022-08-03T02:09:33;2.47;;;2.28;;
71087;SDS011;58747;50.674;4.616;2022-08-03T02:12:03;3.60;;;2.45;;
71087;SDS011;58747;50.674;4.616;2022-08-03T02:14:34;2.00;;;1.90;;
71087;SDS011;58747;50.674;4.616;2022-08-03T02:17:01;4.05;;;2.47;;
71087;SDS011;58747;50.674;4.616;2022-08-03T02:19:28;3.73;;;2.70;;
71087;SDS011;58747;50.674;4.616;2022-08-03T02:21:55;2.47;;;2.28;;
71087;SDS011;58747;50.674;4.616;2022-08-03T02:24:22;6.00;;;2.42;;
71087;SDS011;58747;50.674;4.616;2022-08-03T02:26:47;6.27;;;2.73;;
71087;SDS011;58747;50.674;4.616;2022-08-03T02:29:17;2.30;;;2.10;;
71087;SDS011;58747;50.674;4.616;2022-08-03T02:31:45;2.63;;;2.15;;
71087;SDS011;58747;50.674;4.616;2022-08-03T02:34:13;2.60;;;1.92;;
71087;SDS011;58747;50.674;4.616;2022-08-03T02:36:41;3.57;;;1.83;;
71087;SDS011;58747;50.674;4.616;2022-08-03T02:39:09;3.38;;;2.53;;
71087;SDS011;58747;50.674;4.616;2022-08-03T02:41:45;3.13;;;1.98;;
71087;SDS011;58747;50.674;4.616;2022-08-03T02:44:13;1.95;;;1.85;;
71087;SDS011;58747;50.674;4.616;2022-08-03T02:46:43;3.33;;;2.28;;
71087;SDS011;58747;50.674;4.616;2022-08-03T02:49:11;4.10;;;2.20;;
71087;SDS011;58747;50.674;4.616;2022-08-03T02:51:38;2.60;;;2.40;;
71087;SDS011;58747;50.674;4.616;2022-08-03T02:54:05;2.50;;;2.30;;
71087;SDS011;58747;50.674;4.616;2022-08-03T02:56:33;3.80;;;2.65;;
71087;SDS011;58747;50.674;4.616;2022-08-03T02:59:00;2.60;;;1.70;;
71087;SDS011;58747;50.674;4.616;2022-08-03T03:01:26;2.33;;;1.60;;
71087;SDS011;58747;50.674;4.616;2022-08-03T03:03:54;2.97;;;1.95;;
71087;SDS011;58747;50.674;4.616;2022-08-03T03:06:21;3.40;;;1.83;;
71087;SDS011;58747;50.674;4.616;2022-08-03T03:08:49;3.55;;;1.75;;
71087;SDS011;58747;50.674;4.616;2022-08-03T03:11:16;3.50;;;2.00;;
71087;SDS011;58747;50.674;4.616;2022-08-03T03:13:43;4.53;;;2.17;;
71087;SDS011;58747;50.674;4.616;2022-08-03T03:16:10;2.90;;;1.70;;
71087;SDS011;58747;50.674;4.616;2022-08-03T03:18:37;2.65;;;2.45;;
71087;SDS011;58747;50.674;4.616;2022-08-03T03:21:04;2.80;;;1.98;;
71087;SDS011;58747;50.674;4.616;2022-08-03T03:23:33;2.42;;;2.25;;
71087;SDS011;58747;50.674;4.616;2022-08-03T03:26:01;5.07;;;1.87;;
71087;SDS011;58747;50.674;4.616;2022-08-03T03:28:26;3.15;;;2.35;;
71087;SDS011;58747;50.674;4.616;2022-08-03T03:30:52;2.63;;;2.43;;
71087;SDS011;58747;50.674;4.616;2022-08-03T03:33:17;5.63;;;2.65;;
71087;SDS011;58747;50.674;4.616;2022-08-03T03:35:43;3.43;;;2.37;;
71087;SDS011;58747;50.674;4.616;2022-08-03T03:38:10;2.40;;;2.20;;
71087;SDS011;58747;50.674;4.616;2022-08-03T03:40:39;3.00;;;2.53;;
71087;SDS011;58747;50.674;4.616;2022-08-03T03:43:08;2.47;;;2.22;;
71087;SDS011;58747;50.674;4.616;2022-08-03T03:45:35;4.15;;;2.17;;
71087;SDS011;58747;50.674;4.616;2022-08-03T03:48:04;3.10;;;2.33;;
71087;SDS011;58747;50.674;4.616;2022-08-03T03:50:31;3.30;;;2.63;;
71087;SDS011;58747;50.674;4.616;2022-08-03T03:52:57;2.38;;;2.05;;
71087;SDS011;58747;50.674;4.616;2022-08-03T03:55:23;3.63;;;2.40;;
71087;SDS011;58747;50.674;4.616;2022-08-03T03:57:48;2.90;;;2.07;;
71087;SDS011;58747;50.674;4.616;2022-08-03T04:00:15;2.43;;;2.23;;
71087;SDS011;58747;50.674;4.616;2022-08-03T04:02:41;3.22;;;2.25;;
71087;SDS011;58747;50.674;4.616;2022-08-03T04:05:07;3.97;;;2.88;;
71087;SDS011;58747;50.674;4.616;2022-08-03T04:08:03;4.50;;;2.75;;
71087;SDS011;58747;50.674;4.616;2022-08-03T04:16:21;3.55;;;2.47;;
71087;SDS011;58747;50.674;4.616;2022-08-03T04:18:51;6.00;;;2.38;;
71087;SDS011;58747;50.674;4.616;2022-08-03T04:21:21;4.78;;;2.90;;
71087;SDS011;58747;50.674;4.616;2022-08-03T04:23:47;3.23;;;2.93;;
71087;SDS011;58747;50.674;4.616;2022-08-03T04:26:15;4.82;;;2.40;;
71087;SDS011;58747;50.674;4.616;2022-08-03T04:28:45;3.30;;;2.70;;
71087;SDS011;58747;50.674;4.616;2022-08-03T04:31:11;3.78;;;2.88;;
71087;SDS011;58747;50.674;4.616;2022-08-03T04:33:38;3.83;;;3.03;;
71087;SDS011;58747;50.674;4.616;2022-08-03T04:36:07;2.77;;;2.53;;
71087;SDS011;58747;50.674;4.616;2022-08-03T04:41:27;4.03;;;2.47;;
71087;SDS011;58747;50.674;4.616;2022-08-03T04:43:55;7.25;;;2.42;;
71087;SDS011;58747;50.674;4.616;2022-08-03T04:46:25;6.88;;;2.63;;
71087;SDS011;58747;50.674;4.616;2022-08-03T04:48:52;3.93;;;2.20;;
71087;SDS011;58747;50.674;4.616;2022-08-03T04:51:21;7.32;;;2.75;;
71087;SDS011;58747;50.674;4.616;2022-08-03T04:53:47;2.97;;;2.40;;
71087;SDS011;58747;50.674;4.616;2022-08-03T04:56:12;2.70;;;2.47;;
71087;SDS011;58747;50.674;4.616;2022-08-03T04:58:38;2.83;;;2.40;;
71087;SDS011;58747;50.674;4.616;2022-08-03T05:01:03;3.37;;;2.20;;
71087;SDS011;58747;50.674;4.616;2022-08-03T05:03:28;3.35;;;2.85;;
71087;SDS011;58747;50.674;4.616;2022-08-03T05:05:55;3.97;;;2.60;;
71087;SDS011;58747;50.674;4.616;2022-08-03T05:08:21;3.17;;;2.70;;
71087;SDS011;58747;50.674;4.616;2022-08-03T05:10:46;4.27;;;2.20;;
71087;SDS011;58747;50.674;4.616;2022-08-03T05:13:12;2.90;;;2.47;;
71087;SDS011;58747;50.674;4.616;2022-08-03T05:15:37;2.50;;;2.28;;
71087;SDS011;58747;50.674;4.616;2022-08-03T05:18:03;5.63;;;3.03;;
71087;SDS011;58747;50.674;4.616;2022-08-03T05:20:28;4.33;;;2.63;;
71087;SDS011;58747;50.674;4.616;2022-08-03T05:22:55;4.77;;;3.23;;
71087;SDS011;58747;50.674;4.616;2022-08-03T05:25:20;5.75;;;2.42;;
71087;SDS011;58747;50.674;4.616;2022-08-03T05:27:46;2.63;;;2.43;;
71087;SDS011;58747;50.674;4.616;2022-08-03T05:30:11;2.73;;;2.37;;
71087;SDS011;58747;50.674;4.616;2022-08-03T05:32:37;2.75;;;2.50;;
71087;SDS011;58747;50.674;4.616;2022-08-03T05:35:02;2.90;;;2.33;;
71087;SDS011;58747;50.674;4.616;2022-08-03T05:37:28;3.23;;;2.80;;
71087;SDS011;58747;50.674;4.616;2022-08-03T05:39:53;2.63;;;2.43;;
71087;SDS011;58747;50.674;4.616;2022-08-03T05:42:18;4.87;;;2.70;;
71087;SDS011;58747;50.674;4.616;2022-08-03T05:44:44;3.60;;;2.67;;
71087;SDS011;58747;50.674;4.616;2022-08-03T05:47:09;3.07;;;2.60;;
71087;SDS011;58747;50.674;4.616;2022-08-03T05:49:34;5.37;;;2.20;;
71087;SDS011;58747;50.674;4.616;2022-08-03T05:52:07;2.97;;;2.27;;
71087;SDS011;58747;50.674;4.616;2022-08-03T05:54:33;3.15;;;2.38;;
71087;SDS011;58747;50.674;4.616;2022-08-03T05:56:58;2.70;;;2.30;;
71087;SDS011;58747;50.674;4.616;2022-08-03T05:59:24;2.78;;;2.50;;
71087;SDS011;58747;50.674;4.616;2022-08-03T06:01:50;3.70;;;2.63;;
71087;SDS011;58747;50.674;4.616;2022-08-03T06:04:15;3.75;;;2.88;;
71087;SDS011;58747;50.674;4.616;2022-08-03T06:06:41;4.13;;;2.80;;
71087;SDS011;58747;50.674;4.616;2022-08-03T06:09:07;3.33;;;2.80;;
71087;SDS011;58747;50.674;4.616;2022-08-03T06:11:33;2.67;;;2.47;;
71087;SDS011;58747;50.674;4.616;2022-08-03T06:13:59;4.03;;;2.53;;
71087;SDS011;58747;50.674;4.616;2022-08-03T06:16:24;3.40;;;2.47;;
71087;SDS011;58747;50.674;4.616;2022-08-03T06:18:49;3.40;;;2.70;;
71087;SDS011;58747;50.674;4.616;2022-08-03T06:21:15;2.93;;;2.53;;
71087;SDS011;58747;50.674;4.616;2022-08-03T06:23:40;3.80;;;2.50;;
71087;SDS011;58747;50.674;4.616;2022-08-03T06:26:07;2.95;;;2.75;;
71087;SDS011;58747;50.674;4.616;2022-08-03T06:28:33;4.37;;;2.37;;
71087;SDS011;58747;50.674;4.616;2022-08-03T06:30:58;2.70;;;1.90;;
71087;SDS011;58747;50.674;4.616;2022-08-03T06:33:23;5.17;;;2.70;;
71087;SDS011;58747;50.674;4.616;2022-08-03T06:35:50;4.07;;;2.85;;
71087;SDS011;58747;50.674;4.616;2022-08-03T06:38:15;8.77;;;3.07;;
71087;SDS011;58747;50.674;4.616;2022-08-03T06:40:41;5.97;;;2.33;;
71087;SDS011;58747;50.674;4.616;2022-08-03T06:43:06;6.20;;;3.00;;
71087;SDS011;58747;50.674;4.616;2022-08-03T06:45:32;5.13;;;3.27;;
71087;SDS011;58747;50.674;4.616;2022-08-03T06:48:06;4.93;;;2.08;;
71087;SDS011;58747;50.674;4.616;2022-08-03T06:50:33;4.78;;;2.78;;
71087;SDS011;58747;50.674;4.616;2022-08-03T06:53:01;3.38;;;2.42;;
71087;SDS011;58747;50.674;4.616;2022-08-03T06:55:27;4.97;;;2.63;;
71087;SDS011;58747;50.674;4.616;2022-08-03T06:57:53;3.63;;;2.50;;
71087;SDS011;58747;50.674;4.616;2022-08-03T07:00:19;3.97;;;2.67;;
71087;SDS011;58747;50.674;4.616;2022-08-03T07:02:44;6.33;;;2.50;;
71087;SDS011;58747;50.674;4.616;2022-08-03T07:05:10;4.80;;;2.60;;
71087;SDS011;58747;50.674;4.616;2022-08-03T07:07:36;2.70;;;2.47;;
71087;SDS011;58747;50.674;4.616;2022-08-03T07:10:02;6.45;;;2.42;;
71087;SDS011;58747;50.674;4.616;2022-08-03T07:12:29;2.40;;;1.40;;
71087;SDS011;58747;50.674;4.616;2022-08-03T07:14:55;2.40;;;1.90;;
71087;SDS011;58747;50.674;4.616;2022-08-03T07:17:21;2.10;;;1.77;;
71087;SDS011;58747;50.674;4.616;2022-08-03T07:19:47;2.47;;;1.77;;
71087;SDS011;58747;50.674;4.616;2022-08-03T07:22:13;3.67;;;2.38;;
71087;SDS011;58747;50.674;4.616;2022-08-03T07:24:38;1.70;;;1.53;;
71087;SDS011;58747;50.674;4.616;2022-08-03T07:27:03;3.63;;;2.50;;
71087;SDS011;58747;50.674;4.616;2022-08-03T07:29:29;4.63;;;2.10;;
71087;SDS011;58747;50.674;4.616;2022-08-03T07:31:54;2.00;;;1.80;;
71087;SDS011;58747;50.674;4.616;2022-08-03T07:34:20;3.47;;;2.07;;
71087;SDS011;58747;50.674;4.616;2022-08-03T07:36:45;3.83;;;2.20;;
71087;SDS011;58747;50.674;4.616;2022-08-03T07:39:10;6.23;;;2.47;;
71087;SDS011;58747;50.674;4.616;2022-08-03T07:41:36;3.17;;;2.30;;
71087;SDS011;58747;50.674;4.616;2022-08-03T07:44:01;2.23;;;2.03;;
71087;SDS011;58747;50.674;4.616;2022-08-03T07:46:27;3.47;;;1.90;;
71087;SDS011;58747;50.674;4.616;2022-08-03T07:48:52;4.28;;;1.90;;
71087;SDS011;58747;50.674;4.616;2022-08-03T07:51:18;3.97;;;1.60;;
71087;SDS011;58747;50.674;4.616;2022-08-03T07:53:43;4.23;;;2.37;;
71087;SDS011;58747;50.674;4.616;2022-08-03T07:56:08;3.60;;;1.90;;
71087;SDS011;58747;50.674;4.616;2022-08-03T07:58:34;2.40;;;1.80;;
71087;SDS011;58747;50.674;4.616;2022-08-03T08:01:00;8.20;;;1.73;;
71087;SDS011;58747;50.674;4.616;2022-08-03T08:03:25;3.17;;;2.17;;
71087;SDS011;58747;50.674;4.616;2022-08-03T08:05:51;3.83;;;2.33;;
71087;SDS011;58747;50.674;4.616;2022-08-03T08:08:17;2.63;;;1.83;;
71087;SDS011;58747;50.674;4.616;2022-08-03T08:10:44;2.05;;;1.90;;
71087;SDS011;58747;50.674;4.616;2022-08-03T08:13:09;2.75;;;2.28;;
71087;SDS011;58747;50.674;4.616;2022-08-03T08:15:35;5.47;;;2.00;;
71087;SDS011;58747;50.674;4.616;2022-08-03T08:18:00;1.87;;;1.60;;
71087;SDS011;58747;50.674;4.616;2022-08-03T08:20:27;2.80;;;1.80;;
71087;SDS011;58747;50.674;4.616;2022-08-03T08:22:58;1.92;;;1.80;;
71087;SDS011;58747;50.674;4.616;2022-08-03T08:25:25;2.78;;;1.92;;
71087;SDS011;58747;50.674;4.616;2022-08-03T08:27:51;2.13;;;1.97;;
71087;SDS011;58747;50.674;4.616;2022-08-03T08:30:18;2.35;;;2.10;;
71087;SDS011;58747;50.674;4.616;2022-08-03T08:32:45;3.55;;;2.20;;
71087;SDS011;58747;50.674;4.616;2022-08-03T08:35:11;2.63;;;1.90;;
71087;SDS011;58747;50.674;4.616;2022-08-03T08:37:37;2.50;;;2.00;;
71087;SDS011;58747;50.674;4.616;2022-08-03T08:40:04;3.42;;;1.70;;
71087;SDS011;58747;50.674;4.616;2022-08-03T08:42:33;2.33;;;2.22;;
71087;SDS011;58747;50.674;4.616;2022-08-03T08:45:01;3.40;;;1.70;;
71087;SDS011;58747;50.674;4.616;2022-08-03T08:47:29;2.08;;;1.42;;
71087;SDS011;58747;50.674;4.616;2022-08-03T08:49:56;2.33;;;2.13;;
71087;SDS011;58747;50.674;4.616;2022-08-03T08:52:23;2.83;;;2.13;;
71087;SDS011;58747;50.674;4.616;2022-08-03T08:54:51;3.10;;;2.10;;
71087;SDS011;58747;50.674;4.616;2022-08-03T08:57:38;3.03;;;2.83;;
71087;SDS011;58747;50.674;4.616;2022-08-03T09:00:10;2.40;;;2.03;;
71087;SDS011;58747;50.674;4.616;2022-08-03T09:02:39;2.90;;;2.22;;
71087;SDS011;58747;50.674;4.616;2022-08-03T09:05:12;2.30;;;2.20;;
71087;SDS011;58747;50.674;4.616;2022-08-03T09:07:40;3.60;;;2.03;;
71087;SDS011;58747;50.674;4.616;2022-08-03T09:10:07;2.20;;;2.10;;
71087;SDS011;58747;50.674;4.616;2022-08-03T09:12:38;2.28;;;1.98;;
71087;SDS011;58747;50.674;4.616;2022-08-03T09:15:29;1.80;;;1.70;;
71087;SDS011;58747;50.674;4.616;2022-08-03T09:17:57;2.80;;;2.60;;
71087;SDS011;58747;50.674;4.616;2022-08-03T09:20:30;2.30;;;2.08;;
71087;SDS011;58747;50.674;4.616;2022-08-03T09:22:58;2.23;;;1.87;;
71087;SDS011;58747;50.674;4.616;2022-08-03T09:25:33;2.70;;;1.85;;
71087;SDS011;58747;50.674;4.616;2022-08-03T09:28:07;2.03;;;1.80;;
71087;SDS011;58747;50.674;4.616;2022-08-03T09:30:37;1.95;;;1.75;;
71087;SDS011;58747;50.674;4.616;2022-08-03T09:33:04;1.58;;;1.48;;
71087;SDS011;58747;50.674;4.616;2022-08-03T09:35:31;2.23;;;1.50;;
71087;SDS011;58747;50.674;4.616;2022-08-03T09:38:29;2.45;;;2.25;;
71087;SDS011;58747;50.674;4.616;2022-08-03T09:40:51;2.63;;;1.98;;
71087;SDS011;58747;50.674;4.616;2022-08-03T09:43:18;2.53;;;1.77;;
71087;SDS011;58747;50.674;4.616;2022-08-03T09:45:44;1.98;;;1.88;;
71087;SDS011;58747;50.674;4.616;2022-08-03T09:53:18;1.92;;;1.83;;
71087;SDS011;58747;50.674;4.616;2022-08-03T09:55:50;2.28;;;2.08;;
71087;SDS011;58747;50.674;4.616;2022-08-03T09:58:19;1.63;;;1.50;;
71087;SDS011;58747;50.674;4.616;2022-08-03T10:03:18;3.03;;;1.27;;
71087;SDS011;58747;50.674;4.616;2022-08-03T10:05:44;1.95;;;1.63;;
71087;SDS011;58747;50.674;4.616;2022-08-03T10:08:13;1.73;;;1.63;;
71087;SDS011;58747;50.674;4.616;2022-08-03T10:10:43;2.83;;;2.17;;
71087;SDS011;58747;50.674;4.616;2022-08-03T10:13:10;2.00;;;1.90;;
71087;SDS011;58747;50.674;4.616;2022-08-03T10:15:38;1.97;;;1.87;;
71087;SDS011;58747;50.674;4.616;2022-08-03T10:18:04;2.92;;;2.72;;
71087;SDS011;58747;50.674;4.616;2022-08-03T10:20:30;3.20;;;2.13;;
71087;SDS011;58747;50.674;4.616;2022-08-03T10:23:00;1.98;;;1.88;;
71087;SDS011;58747;50.674;4.616;2022-08-03T10:25:26;2.40;;;2.27;;
71087;SDS011;58747;50.674;4.616;2022-08-03T10:27:54;2.42;;;2.33;;
71087;SDS011;58747;50.674;4.616;2022-08-03T10:30:21;2.35;;;2.15;;
71087;SDS011;58747;50.674;4.616;2022-08-03T10:32:51;1.90;;;1.80;;
71087;SDS011;58747;50.674;4.616;2022-08-03T10:35:19;2.72;;;2.53;;
71087;SDS011;58747;50.674;4.616;2022-08-03T10:37:56;2.50;;;2.17;;
71087;SDS011;58747;50.674;4.616;2022-08-03T10:40:32;1.73;;;1.63;;
71087;SDS011;58747;50.674;4.616;2022-08-03T10:43:06;2.15;;;2.05;;
71087;SDS011;58747;50.674;4.616;2022-08-03T10:45:35;2.67;;;2.47;;
71087;SDS011;58747;50.674;4.616;2022-08-03T10:48:06;2.33;;;2.10;;
71087;SDS011;58747;50.674;4.616;2022-08-03T10:50:32;2.47;;;2.37;;
71087;SDS011;58747;50.674;4.616;2022-08-03T10:52:58;2.42;;;2.33;;
71087;SDS011;58747;50.674;4.616;2022-08-03T11:01:08;2.20;;;1.93;;
71087;SDS011;58747;50.674;4.616;2022-08-03T11:06:18;2.47;;;2.38;;
71087;SDS011;58747;50.674;4.616;2022-08-03T11:08:46;2.80;;;2.65;;
71087;SDS011;58747;50.674;4.616;2022-08-03T11:13:46;3.03;;;2.93;;
71087;SDS011;58747;50.674;4.616;2022-08-03T11:16:48;4.07;;;3.83;;
71087;SDS011;58747;50.674;4.616;2022-08-03T11:19:17;4.75;;;4.40;;
71087;SDS011;58747;50.674;4.616;2022-08-03T11:35:16;5.82;;;5.57;;
71087;SDS011;58747;50.674;4.616;2022-08-03T11:48:25;8.02;;;7.72;;
71087;SDS011;58747;50.674;4.616;2022-08-03T11:50:52;7.68;;;7.38;;
71087;SDS011;58747;50.674;4.616;2022-08-03T11:53:17;7.40;;;6.80;;
71087;SDS011;58747;50.674;4.616;2022-08-03T11:55:44;8.43;;;7.93;;
71087;SDS011;58747;50.674;4.616;2022-08-03T11:58:19;7.15;;;6.70;;
71087;SDS011;58747;50.674;4.616;2022-08-03T12:00:47;6.72;;;6.38;;
71087;SDS011;58747;50.674;4.616;2022-08-03T12:03:14;8.23;;;7.73;;
71087;SDS011;58747;50.674;4.616;2022-08-03T12:05:46;9.60;;;9.20;;
71087;SDS011;58747;50.674;4.616;2022-08-03T12:08:14;9.40;;;8.90;;
71087;SDS011;58747;50.674;4.616;2022-08-03T12:10:51;9.45;;;8.85;;
71087;SDS011;58747;50.674;4.616;2022-08-03T12:13:18;11.05;;;10.45;;
71087;SDS011;58747;50.674;4.616;2022-08-03T12:15:49;5.80;;;5.50;;
71087;SDS011;58747;50.674;4.616;2022-08-03T12:18:16;8.88;;;8.55;;
71087;SDS011;58747;50.674;4.616;2022-08-03T12:20:43;11.48;;;10.88;;
71087;SDS011;58747;50.674;4.616;2022-08-03T12:23:09;7.78;;;7.38;;
71087;SDS011;58747;50.674;4.616;2022-08-03T12:25:36;10.73;;;10.23;;
71087;SDS011;58747;50.674;4.616;2022-08-03T12:28:13;8.83;;;8.23;;
71087;SDS011;58747;50.674;4.616;2022-08-03T12:30:41;10.20;;;9.70;;
71087;SDS011;58747;50.674;4.616;2022-08-03T12:33:18;13.57;;;13.07;;
71087;SDS011;58747;50.674;4.616;2022-08-03T12:35:47;10.10;;;9.60;;
71087;SDS011;58747;50.674;4.616;2022-08-03T12:38:28;9.32;;;8.93;;
71087;SDS011;58747;50.674;4.616;2022-08-03T12:40:59;8.23;;;7.83;;
71087;SDS011;58747;50.674;4.616;2022-08-03T12:43:45;7.28;;;6.80;;
71087;SDS011;58747;50.674;4.616;2022-08-03T12:46:15;8.40;;;8.00;;
71087;SDS011;58747;50.674;4.616;2022-08-03T12:48:59;8.63;;;8.13;;
71087;SDS011;58747;50.674;4.616;2022-08-03T12:54:20;6.13;;;5.83;;
71087;SDS011;58747;50.674;4.616;2022-08-03T12:59:29;9.23;;;8.63;;
71087;SDS011;58747;50.674;4.616;2022-08-03T13:01:56;9.73;;;9.23;;
71087;SDS011;58747;50.674;4.616;2022-08-03T13:04:29;7.63;;;7.28;;
71087;SDS011;58747;50.674;4.616;2022-08-03T13:06:57;6.53;;;6.18;;
71087;SDS011;58747;50.674;4.616;2022-08-03T13:09:28;5.82;;;5.55;;
71087;SDS011;58747;50.674;4.616;2022-08-03T13:12:18;11.10;;;10.63;;
71087;SDS011;58747;50.674;4.616;2022-08-03T13:14:45;4.60;;;4.30;;
71087;SDS011;58747;50.674;4.616;2022-08-03T13:17:12;5.97;;;5.35;;
71087;SDS011;58747;50.674;4.616;2022-08-03T13:19:38;5.73;;;5.43;;
71087;SDS011;58747;50.674;4.616;2022-08-03T13:22:16;4.40;;;4.20;;
71087;SDS011;58747;50.674;4.616;2022-08-03T13:24:50;3.38;;;2.42;;
71087;SDS011;58747;50.674;4.616;2022-08-03T13:27:19;4.25;;;4.05;;
71087;SDS011;58747;50.674;4.616;2022-08-03T13:29:45;4.57;;;4.30;;
71087;SDS011;58747;50.674;4.616;2022-08-03T13:32:10;3.20;;;3.10;;
71087;SDS011;58747;50.674;4.616;2022-08-03T13:34:36;2.97;;;2.77;;
71087;SDS011;58747;50.674;4.616;2022-08-03T13:37:02;4.07;;;2.75;;
71087;SDS011;58747;50.674;4.616;2022-08-03T13:39:27;2.60;;;2.50;;
71087;SDS011;58747;50.674;4.616;2022-08-03T13:41:53;2.97;;;2.77;;
71087;SDS011;58747;50.674;4.616;2022-08-03T13:44:18;3.83;;;3.63;;
71087;SDS011;58747;50.674;4.616;2022-08-03T13:46:44;4.10;;;3.80;;
71087;SDS011;58747;50.674;4.616;2022-08-03T13:49:10;3.45;;;2.83;;
71087;SDS011;58747;50.674;4.616;2022-08-03T13:51:35;3.03;;;2.50;;
71087;SDS011;58747;50.674;4.616;2022-08-03T13:54:01;3.40;;;2.22;;
71087;SDS011;58747;50.674;4.616;2022-08-03T13:56:27;2.30;;;2.03;;
71087;SDS011;58747;50.674;4.616;2022-08-03T13:58:54;3.05;;;2.40;;
71087;SDS011;58747;50.674;4.616;2022-08-03T14:01:20;2.10;;;2.00;;
71087;SDS011;58747;50.674;4.616;2022-08-03T14:03:45;2.53;;;2.13;;
71087;SDS011;58747;50.674;4.616;2022-08-03T14:06:13;2.42;;;2.22;;
71087;SDS011;58747;50.674;4.616;2022-08-03T14:08:38;2.97;;;2.63;;
71087;SDS011;58747;50.674;4.616;2022-08-03T14:11:04;2.40;;;2.30;;
71087;SDS011;58747;50.674;4.616;2022-08-03T14:13:30;3.13;;;3.03;;
71087;SDS011;58747;50.674;4.616;2022-08-03T14:15:55;5.77;;;2.13;;
71087;SDS011;58747;50.674;4.616;2022-08-03T14:18:21;2.00;;;1.80;;
71087;SDS011;58747;50.674;4.616;2022-08-03T14:20:46;3.28;;;2.08;;
71087;SDS011;58747;50.674;4.616;2022-08-03T14:23:12;2.67;;;2.03;;
71087;SDS011;58747;50.674;4.616;2022-08-03T14:25:38;4.30;;;3.85;;
71087;SDS011;58747;50.674;4.616;2022-08-03T14:28:05;2.65;;;2.45;;
71087;SDS011;58747;50.674;4.616;2022-08-03T14:30:31;2.07;;;1.97;;
71087;SDS011;58747;50.674;4.616;2022-08-03T14:32:56;3.00;;;2.43;;
71087;SDS011;58747;50.674;4.616;2022-08-03T14:35:21;2.90;;;2.47;;
71087;SDS011;58747;50.674;4.616;2022-08-03T14:37:47;2.00;;;1.90;;
71087;SDS011;58747;50.674;4.616;2022-08-03T14:40:12;2.83;;;2.63;;
71087;SDS011;58747;50.674;4.616;2022-08-03T14:42:38;4.87;;;3.10;;
71087;SDS011;58747;50.674;4.616;2022-08-03T14:45:04;2.30;;;2.10;;
71087;SDS011;58747;50.674;4.616;2022-08-03T14:47:30;4.43;;;2.70;;
71087;SDS011;58747;50.674;4.616;2022-08-03T14:49:55;2.10;;;1.87;;
71087;SDS011;58747;50.674;4.616;2022-08-03T14:52:20;3.47;;;3.17;;
71087;SDS011;58747;50.674;4.616;2022-08-03T14:54:46;3.00;;;2.25;;
71087;SDS011;58747;50.674;4.616;2022-08-03T14:57:12;2.73;;;2.53;;
71087;SDS011;58747;50.674;4.616;2022-08-03T14:59:37;2.03;;;1.93;;
71087;SDS011;58747;50.674;4.616;2022-08-03T15:02:02;2.13;;;1.93;;
71087;SDS011;58747;50.674;4.616;2022-08-03T15:04:28;2.53;;;2.00;;
71087;SDS011;58747;50.674;4.616;2022-08-03T15:06:53;2.00;;;1.90;;
71087;SDS011;58747;50.674;4.616;2022-08-03T15:09:18;2.67;;;2.03;;
71087;SDS011;58747;50.674;4.616;2022-08-03T15:11:44;2.27;;;2.07;;
71087;SDS011;58747;50.674;4.616;2022-08-03T15:14:09;2.20;;;2.10;;
71087;SDS011;58747;50.674;4.616;2022-08-03T15:16:35;2.75;;;2.50;;
71087;SDS011;58747;50.674;4.616;2022-08-03T15:19:01;3.23;;;2.17;;
71087;SDS011;58747;50.674;4.616;2022-08-03T15:21:26;3.72;;;2.05;;
71087;SDS011;58747;50.674;4.616;2022-08-03T15:23:52;2.10;;;1.97;;
71087;SDS011;58747;50.674;4.616;2022-08-03T15:26:18;2.55;;;2.08;;
71087;SDS011;58747;50.674;4.616;2022-08-03T15:28:43;2.67;;;2.40;;
71087;SDS011;58747;50.674;4.616;2022-08-03T15:31:09;2.47;;;1.93;;
71087;SDS011;58747;50.674;4.616;2022-08-03T15:33:34;2.97;;;2.77;;
71087;SDS011;58747;50.674;4.616;2022-08-03T15:35:59;2.40;;;2.10;;
71087;SDS011;58747;50.674;4.616;2022-08-03T15:38:25;3.93;;;2.03;;
71087;SDS011;58747;50.674;4.616;2022-08-03T15:40:50;3.17;;;2.17;;
71087;SDS011;58747;50.674;4.616;2022-08-03T15:43:19;3.08;;;2.20;;
71087;SDS011;58747;50.674;4.616;2022-08-03T15:45:45;2.17;;;1.95;;
71087;SDS011;58747;50.674;4.616;2022-08-03T15:48:11;5.87;;;2.60;;
71087;SDS011;58747;50.674;4.616;2022-08-03T15:50:36;2.47;;;2.30;;
71087;SDS011;58747;50.674;4.616;2022-08-03T15:53:02;3.00;;;2.47;;
71087;SDS011;58747;50.674;4.616;2022-08-03T15:55:28;3.05;;;2.08;;
71087;SDS011;58747;50.674;4.616;2022-08-03T15:57:53;2.40;;;2.10;;
71087;SDS011;58747;50.674;4.616;2022-08-03T16:00:19;2.33;;;2.03;;
71087;SDS011;58747;50.674;4.616;2022-08-03T16:02:44;2.85;;;1.90;;
71087;SDS011;58747;50.674;4.616;2022-08-03T16:05:10;3.17;;;2.90;;
71087;SDS011;58747;50.674;4.616;2022-08-03T16:07:35;1.80;;;1.70;;
71087;SDS011;58747;50.674;4.616;2022-08-03T16:10:07;4.32;;;2.33;;